sensor_id;sensor_type;location;lat;lon;timestamp;P1;durP1;ratioP1;P2;durP2;ratioP2
69057;SDS011;56128;37.534;-122.308;2022-10-04T00:04:18;13.63;;;3.60;;
69057;SDS011;56128;37.534;-122.308;2022-10-04T00:09:21;9.77;;;4.03;;
69057;SDS011;56128;37.534;-122.308;2022-10-04T00:14:22;8.63;;;3.47;;
69057;SDS011;56128;37.534;-122.308;2022-10-04T00:16:53;10.95;;;4.15;;
69057;SDS011;56128;37.534;-122.308;2022-10-04T00:19:25;10.07;;;3.80;;
69057;SDS011;56128;37.534;-122.308;2022-10-04T00:24:32;10.27;;;4.25;;
69057;SDS011;56128;37.534;-122.308;2022-10-04T00:27:16;10.52;;;3.50;;
69057;SDS011;56128;37.534;-122.308;2022-10-04T00:29:50;7.82;;;2.97;;
69057;SDS011;56128;37.534;-122.308;2022-10-04T00:33:01;11.23;;;4.10;;
69057;SDS011;56128;37.534;-122.308;2022-10-04T00:37:59;10.70;;;3.55;;
69057;SDS011;56128;37.534;-122.308;2022-10-04T00:40:33;10.13;;;4.00;;
69057;SDS011;56128;37.534;-122.308;2022-10-04T00:43:15;11.25;;;3.50;;
69057;SDS011;56128;37.534;-122.308;2022-10-04T00:45:46;7.82;;;3.30;;
69057;SDS011;56128;37.534;-122.308;2022-10-04T00:54:11;8.95;;;3.60;;
69057;SDS011;56128;37.534;-122.308;2022-10-04T00:57:01;8.80;;;3.65;;
69057;SDS011;56128;37.534;-122.308;2022-10-04T00:59:39;6.75;;;3.47;;
69057;SDS011;56128;37.534;-122.308;2022-10-04T01:02:13;8.75;;;3.30;;
69057;SDS011;56128;37.534;-122.308;2022-10-04T01:04:59;10.82;;;3.45;;
69057;SDS011;56128;37.534;-122.308;2022-10-04T01:07:36;8.38;;;3.15;;
69057;SDS011;56128;37.534;-122.308;2022-10-04T01:10:09;12.57;;;4.20;;
69057;SDS011;56128;37.534;-122.308;2022-10-04T01:12:51;8.25;;;3.10;;
69057;SDS011;56128;37.534;-122.308;2022-10-04T01:31:35;8.65;;;3.40;;
69057;SDS011;56128;37.534;-122.308;2022-10-04T01:34:03;8.50;;;3.40;;
69057;SDS011;56128;37.534;-122.308;2022-10-04T01:36:31;11.07;;;3.70;;
69057;SDS011;56128;37.534;-122.308;2022-10-04T01:38:58;7.28;;;3.65;;
69057;SDS011;56128;37.534;-122.308;2022-10-04T01:41:30;10.80;;;4.20;;
69057;SDS011;56128;37.534;-122.308;2022-10-04T01:44:01;7.32;;;3.25;;
69057;SDS011;56128;37.534;-122.308;2022-10-04T01:46:31;11.05;;;4.05;;
69057;SDS011;56128;37.534;-122.308;2022-10-04T01:49:02;10.95;;;3.72;;
69057;SDS011;56128;37.534;-122.308;2022-10-04T01:51:33;8.93;;;3.90;;
69057;SDS011;56128;37.534;-122.308;2022-10-04T01:54:10;16.77;;;4.40;;
69057;SDS011;56128;37.534;-122.308;2022-10-04T01:57:23;11.13;;;3.80;;
69057;SDS011;56128;37.534;-122.308;2022-10-04T02:02:19;11.07;;;4.93;;
69057;SDS011;56128;37.534;-122.308;2022-10-04T02:04:56;8.18;;;3.97;;
69057;SDS011;56128;37.534;-122.308;2022-10-04T02:07:24;11.13;;;4.20;;
69057;SDS011;56128;37.534;-122.308;2022-10-04T02:09:58;12.38;;;3.67;;
69057;SDS011;56128;37.534;-122.308;2022-10-04T02:12:29;12.68;;;4.28;;
69057;SDS011;56128;37.534;-122.308;2022-10-04T02:14:57;9.10;;;3.85;;
69057;SDS011;56128;37.534;-122.308;2022-10-04T02:17:27;10.45;;;3.45;;
69057;SDS011;56128;37.534;-122.308;2022-10-04T02:19:56;12.65;;;4.28;;
69057;SDS011;56128;37.534;-122.308;2022-10-04T02:22:25;9.13;;;3.63;;
69057;SDS011;56128;37.534;-122.308;2022-10-04T02:24:52;9.15;;;4.15;;
69057;SDS011;56128;37.534;-122.308;2022-10-04T02:27:24;8.85;;;3.75;;
69057;SDS011;56128;37.534;-122.308;2022-10-04T02:30:03;12.15;;;3.58;;
69057;SDS011;56128;37.534;-122.308;2022-10-04T02:32:34;12.80;;;4.05;;
69057;SDS011;56128;37.534;-122.308;2022-10-04T02:35:21;12.35;;;3.42;;
69057;SDS011;56128;37.534;-122.308;2022-10-04T02:37:53;12.15;;;4.07;;
69057;SDS011;56128;37.534;-122.308;2022-10-04T02:40:28;10.27;;;4.07;;
69057;SDS011;56128;37.534;-122.308;2022-10-04T02:48:55;11.02;;;4.00;;
69057;SDS011;56128;37.534;-122.308;2022-10-04T02:56:35;8.10;;;4.13;;
69057;SDS011;56128;37.534;-122.308;2022-10-04T02:59:03;10.95;;;3.95;;
69057;SDS011;56128;37.534;-122.308;2022-10-04T03:04:32;14.02;;;4.22;;
69057;SDS011;56128;37.534;-122.308;2022-10-04T03:07:04;9.43;;;3.88;;
69057;SDS011;56128;37.534;-122.308;2022-10-04T03:09:33;11.30;;;4.00;;
69057;SDS011;56128;37.534;-122.308;2022-10-04T03:12:02;12.77;;;4.63;;
69057;SDS011;56128;37.534;-122.308;2022-10-04T03:14:30;13.27;;;4.90;;
69057;SDS011;56128;37.534;-122.308;2022-10-04T03:16:58;9.50;;;3.80;;
69057;SDS011;56128;37.534;-122.308;2022-10-04T03:19:28;11.38;;;4.43;;
69057;SDS011;56128;37.534;-122.308;2022-10-04T03:21:58;11.65;;;4.50;;
69057;SDS011;56128;37.534;-122.308;2022-10-04T03:24:29;13.40;;;4.35;;
69057;SDS011;56128;37.534;-122.308;2022-10-04T03:26:59;13.85;;;4.18;;
69057;SDS011;56128;37.534;-122.308;2022-10-04T03:29:33;13.23;;;4.25;;
69057;SDS011;56128;37.534;-122.308;2022-10-04T03:32:04;10.70;;;4.60;;
69057;SDS011;56128;37.534;-122.308;2022-10-04T03:34:32;14.48;;;4.15;;
69057;SDS011;56128;37.534;-122.308;2022-10-04T03:37:01;14.18;;;5.32;;
69057;SDS011;56128;37.534;-122.308;2022-10-04T03:39:31;11.05;;;4.13;;
69057;SDS011;56128;37.534;-122.308;2022-10-04T03:42:08;12.68;;;4.78;;
69057;SDS011;56128;37.534;-122.308;2022-10-04T03:44:40;13.40;;;4.60;;
69057;SDS011;56128;37.534;-122.308;2022-10-04T03:47:19;11.88;;;4.30;;
69057;SDS011;56128;37.534;-122.308;2022-10-04T03:49:49;10.30;;;4.25;;
69057;SDS011;56128;37.534;-122.308;2022-10-04T03:52:26;15.50;;;4.78;;
69057;SDS011;56128;37.534;-122.308;2022-10-04T03:55:00;15.00;;;4.43;;
69057;SDS011;56128;37.534;-122.308;2022-10-04T03:57:29;10.95;;;4.95;;
69057;SDS011;56128;37.534;-122.308;2022-10-04T03:59:57;14.98;;;4.82;;
69057;SDS011;56128;37.534;-122.308;2022-10-04T04:04:57;13.13;;;5.00;;
69057;SDS011;56128;37.534;-122.308;2022-10-04T04:10:30;15.15;;;4.72;;
69057;SDS011;56128;37.534;-122.308;2022-10-04T04:15:48;10.38;;;5.15;;
69057;SDS011;56128;37.534;-122.308;2022-10-04T04:18:18;12.02;;;5.03;;
69057;SDS011;56128;37.534;-122.308;2022-10-04T04:20:48;17.67;;;5.77;;
69057;SDS011;56128;37.534;-122.308;2022-10-04T04:23:23;14.07;;;5.47;;
69057;SDS011;56128;37.534;-122.308;2022-10-04T04:25:52;11.40;;;5.32;;
69057;SDS011;56128;37.534;-122.308;2022-10-04T04:28:38;17.00;;;5.32;;
69057;SDS011;56128;37.534;-122.308;2022-10-04T04:36:26;13.77;;;5.00;;
69057;SDS011;56128;37.534;-122.308;2022-10-04T04:39:08;13.38;;;5.25;;
69057;SDS011;56128;37.534;-122.308;2022-10-04T04:41:52;14.32;;;5.05;;
69057;SDS011;56128;37.534;-122.308;2022-10-04T04:44:19;13.32;;;5.53;;
69057;SDS011;56128;37.534;-122.308;2022-10-04T04:46:45;14.98;;;5.80;;
69057;SDS011;56128;37.534;-122.308;2022-10-04T04:49:13;14.85;;;5.45;;
69057;SDS011;56128;37.534;-122.308;2022-10-04T04:51:45;15.70;;;5.72;;
69057;SDS011;56128;37.534;-122.308;2022-10-04T04:54:16;11.93;;;5.00;;
69057;SDS011;56128;37.534;-122.308;2022-10-04T04:56:47;16.95;;;5.60;;
69057;SDS011;56128;37.534;-122.308;2022-10-04T04:59:17;15.07;;;5.75;;
69057;SDS011;56128;37.534;-122.308;2022-10-04T05:01:46;17.65;;;6.10;;
69057;SDS011;56128;37.534;-122.308;2022-10-04T05:06:40;16.13;;;5.88;;
69057;SDS011;56128;37.534;-122.308;2022-10-04T05:09:29;15.52;;;6.25;;
69057;SDS011;56128;37.534;-122.308;2022-10-04T05:12:01;13.85;;;6.10;;
69057;SDS011;56128;37.534;-122.308;2022-10-04T05:14:36;13.43;;;5.32;;
69057;SDS011;56128;37.534;-122.308;2022-10-04T05:17:05;12.27;;;5.95;;
69057;SDS011;56128;37.534;-122.308;2022-10-04T05:19:35;23.67;;;6.70;;
69057;SDS011;56128;37.534;-122.308;2022-10-04T05:22:08;17.33;;;6.15;;
69057;SDS011;56128;37.534;-122.308;2022-10-04T05:24:37;16.85;;;6.97;;
69057;SDS011;56128;37.534;-122.308;2022-10-04T05:27:21;13.93;;;6.07;;
69057;SDS011;56128;37.534;-122.308;2022-10-04T05:33:07;18.17;;;6.00;;
69057;SDS011;56128;37.534;-122.308;2022-10-04T05:35:56;17.95;;;6.65;;
69057;SDS011;56128;37.534;-122.308;2022-10-04T05:41:29;17.27;;;6.38;;
69057;SDS011;56128;37.534;-122.308;2022-10-04T05:44:16;19.00;;;6.82;;
69057;SDS011;56128;37.534;-122.308;2022-10-04T05:46:48;17.75;;;7.22;;
69057;SDS011;56128;37.534;-122.308;2022-10-04T05:49:14;16.15;;;6.35;;
69057;SDS011;56128;37.534;-122.308;2022-10-04T05:51:48;16.55;;;7.10;;
69057;SDS011;56128;37.534;-122.308;2022-10-04T05:54:21;18.48;;;7.53;;
69057;SDS011;56128;37.534;-122.308;2022-10-04T06:05:06;16.95;;;8.57;;
69057;SDS011;56128;37.534;-122.308;2022-10-04T06:19:12;20.17;;;8.23;;
69057;SDS011;56128;37.534;-122.308;2022-10-04T06:24:39;21.20;;;8.15;;
69057;SDS011;56128;37.534;-122.308;2022-10-04T06:30:05;20.25;;;9.07;;
69057;SDS011;56128;37.534;-122.308;2022-10-04T06:38:24;20.77;;;10.25;;
69057;SDS011;56128;37.534;-122.308;2022-10-04T06:41:29;21.02;;;9.57;;
69057;SDS011;56128;37.534;-122.308;2022-10-04T06:50:05;22.17;;;9.80;;
69057;SDS011;56128;37.534;-122.308;2022-10-04T07:01:21;17.55;;;9.02;;
69057;SDS011;56128;37.534;-122.308;2022-10-04T07:04:02;20.48;;;10.15;;
69057;SDS011;56128;37.534;-122.308;2022-10-04T07:07:15;20.27;;;8.70;;
69057;SDS011;56128;37.534;-122.308;2022-10-04T07:13:04;19.95;;;9.73;;
69057;SDS011;56128;37.534;-122.308;2022-10-04T07:15:51;19.67;;;9.20;;
69057;SDS011;56128;37.534;-122.308;2022-10-04T07:18:38;19.52;;;10.10;;
69057;SDS011;56128;37.534;-122.308;2022-10-04T07:21:40;19.35;;;9.52;;
69057;SDS011;56128;37.534;-122.308;2022-10-04T07:24:20;18.75;;;8.98;;
69057;SDS011;56128;37.534;-122.308;2022-10-04T07:26:51;23.02;;;9.98;;
69057;SDS011;56128;37.534;-122.308;2022-10-04T07:29:21;21.65;;;9.50;;
69057;SDS011;56128;37.534;-122.308;2022-10-04T07:32:14;21.77;;;8.97;;
69057;SDS011;56128;37.534;-122.308;2022-10-04T07:34:48;23.52;;;9.00;;
69057;SDS011;56128;37.534;-122.308;2022-10-04T07:37:18;22.75;;;9.82;;
69057;SDS011;56128;37.534;-122.308;2022-10-04T07:39:48;21.67;;;9.05;;
69057;SDS011;56128;37.534;-122.308;2022-10-04T07:42:36;23.45;;;9.93;;
69057;SDS011;56128;37.534;-122.308;2022-10-04T07:48:00;16.27;;;9.13;;
69057;SDS011;56128;37.534;-122.308;2022-10-04T07:54:17;24.95;;;9.23;;
69057;SDS011;56128;37.534;-122.308;2022-10-04T07:57:04;24.67;;;9.95;;
69057;SDS011;56128;37.534;-122.308;2022-10-04T08:02:49;19.67;;;9.48;;
69057;SDS011;56128;37.534;-122.308;2022-10-04T08:08:12;26.30;;;9.98;;
69057;SDS011;56128;37.534;-122.308;2022-10-04T08:11:11;20.33;;;8.60;;
69057;SDS011;56128;37.534;-122.308;2022-10-04T08:19:39;19.65;;;10.02;;
69057;SDS011;56128;37.534;-122.308;2022-10-04T08:22:19;27.50;;;9.77;;
69057;SDS011;56128;37.534;-122.308;2022-10-04T08:28:04;24.70;;;10.45;;
69057;SDS011;56128;37.534;-122.308;2022-10-04T08:39:32;28.60;;;11.13;;
69057;SDS011;56128;37.534;-122.308;2022-10-04T08:42:27;24.85;;;10.75;;
69057;SDS011;56128;37.534;-122.308;2022-10-04T08:48:16;25.75;;;10.30;;
69057;SDS011;56128;37.534;-122.308;2022-10-04T08:56:41;33.92;;;12.00;;
69057;SDS011;56128;37.534;-122.308;2022-10-04T09:01:56;35.60;;;11.32;;
69057;SDS011;56128;37.534;-122.308;2022-10-04T09:18:44;29.17;;;11.30;;
69057;SDS011;56128;37.534;-122.308;2022-10-04T09:24:25;29.45;;;11.88;;
69057;SDS011;56128;37.534;-122.308;2022-10-04T09:57:30;35.38;;;13.82;;
69057;SDS011;56128;37.534;-122.308;2022-10-04T10:00:18;27.10;;;12.50;;
69057;SDS011;56128;37.534;-122.308;2022-10-04T10:12:26;39.42;;;13.63;;
69057;SDS011;56128;37.534;-122.308;2022-10-04T10:18:15;28.25;;;12.95;;
69057;SDS011;56128;37.534;-122.308;2022-10-04T10:21:09;30.73;;;13.30;;
69057;SDS011;56128;37.534;-122.308;2022-10-04T10:23:59;25.40;;;12.68;;
69057;SDS011;56128;37.534;-122.308;2022-10-04T10:38:18;35.45;;;13.13;;
69057;SDS011;56128;37.534;-122.308;2022-10-04T10:52:48;28.25;;;11.32;;
69057;SDS011;56128;37.534;-122.308;2022-10-04T11:01:31;34.35;;;13.82;;
69057;SDS011;56128;37.534;-122.308;2022-10-04T11:07:23;32.70;;;13.30;;
69057;SDS011;56128;37.534;-122.308;2022-10-04T11:18:14;32.90;;;14.07;;
69057;SDS011;56128;37.534;-122.308;2022-10-04T11:37:51;29.63;;;12.23;;
69057;SDS011;56128;37.534;-122.308;2022-10-04T11:43:22;26.85;;;13.00;;
69057;SDS011;56128;37.534;-122.308;2022-10-04T11:59:58;18.02;;;9.85;;
69057;SDS011;56128;37.534;-122.308;2022-10-04T12:11:01;17.70;;;9.10;;
69057;SDS011;56128;37.534;-122.308;2022-10-04T12:16:35;19.50;;;8.70;;
69057;SDS011;56128;37.534;-122.308;2022-10-04T12:28:15;19.45;;;8.68;;
69057;SDS011;56128;37.534;-122.308;2022-10-04T12:31:18;15.88;;;7.80;;
69057;SDS011;56128;37.534;-122.308;2022-10-04T12:39:21;18.00;;;7.75;;
69057;SDS011;56128;37.534;-122.308;2022-10-04T12:44:49;15.05;;;8.05;;
69057;SDS011;56128;37.534;-122.308;2022-10-04T12:56:07;18.45;;;7.03;;
69057;SDS011;56128;37.534;-122.308;2022-10-04T13:04:03;11.55;;;5.63;;
69057;SDS011;56128;37.534;-122.308;2022-10-04T13:15:29;16.35;;;5.82;;
69057;SDS011;56128;37.534;-122.308;2022-10-04T13:18:04;12.65;;;5.50;;
69057;SDS011;56128;37.534;-122.308;2022-10-04T13:20:57;13.90;;;4.97;;
69057;SDS011;56128;37.534;-122.308;2022-10-04T13:23:37;8.98;;;5.13;;
69057;SDS011;56128;37.534;-122.308;2022-10-04T13:29:15;9.73;;;5.40;;
69057;SDS011;56128;37.534;-122.308;2022-10-04T13:32:01;13.50;;;5.60;;
69057;SDS011;56128;37.534;-122.308;2022-10-04T13:37:31;10.55;;;5.25;;
69057;SDS011;56128;37.534;-122.308;2022-10-04T13:40:27;14.38;;;5.70;;
69057;SDS011;56128;37.534;-122.308;2022-10-04T13:46:01;10.88;;;5.25;;
69057;SDS011;56128;37.534;-122.308;2022-10-04T13:48:56;9.85;;;4.82;;
69057;SDS011;56128;37.534;-122.308;2022-10-04T13:51:31;11.63;;;5.13;;
69057;SDS011;56128;37.534;-122.308;2022-10-04T13:54:16;13.02;;;4.93;;
69057;SDS011;56128;37.534;-122.308;2022-10-04T13:57:17;11.02;;;5.10;;
69057;SDS011;56128;37.534;-122.308;2022-10-04T14:16:52;9.55;;;4.65;;
69057;SDS011;56128;37.534;-122.308;2022-10-04T14:45:02;9.10;;;4.25;;
69057;SDS011;56128;37.534;-122.308;2022-10-04T15:07:14;7.55;;;4.82;;
69057;SDS011;56128;37.534;-122.308;2022-10-04T15:09:50;11.27;;;5.07;;
69057;SDS011;56128;37.534;-122.308;2022-10-04T15:20:23;9.52;;;5.10;;
69057;SDS011;56128;37.534;-122.308;2022-10-04T15:23:34;10.98;;;5.70;;
69057;SDS011;56128;37.534;-122.308;2022-10-04T15:31:36;8.48;;;4.93;;
69057;SDS011;56128;37.534;-122.308;2022-10-04T16:00:24;8.95;;;5.07;;
69057;SDS011;56128;37.534;-122.308;2022-10-04T16:05:23;9.82;;;5.10;;
69057;SDS011;56128;37.534;-122.308;2022-10-04T16:32:29;12.50;;;5.00;;
69057;SDS011;56128;37.534;-122.308;2022-10-04T16:37:54;10.52;;;4.95;;
69057;SDS011;56128;37.534;-122.308;2022-10-04T16:41:15;10.95;;;5.13;;
69057;SDS011;56128;37.534;-122.308;2022-10-04T16:48:29;10.77;;;4.63;;
69057;SDS011;56128;37.534;-122.308;2022-10-04T16:51:17;9.20;;;4.63;;
69057;SDS011;56128;37.534;-122.308;2022-10-04T16:57:22;10.38;;;4.32;;
69057;SDS011;56128;37.534;-122.308;2022-10-04T16:59:58;8.52;;;4.30;;
69057;SDS011;56128;37.534;-122.308;2022-10-04T17:05:48;10.45;;;4.25;;
69057;SDS011;56128;37.534;-122.308;2022-10-04T17:08:29;8.40;;;3.97;;
69057;SDS011;56128;37.534;-122.308;2022-10-04T17:16:54;6.80;;;3.75;;
69057;SDS011;56128;37.534;-122.308;2022-10-04T17:27:51;9.18;;;4.50;;
69057;SDS011;56128;37.534;-122.308;2022-10-04T17:30:21;12.50;;;5.00;;
69057;SDS011;56128;37.534;-122.308;2022-10-04T17:41:16;8.90;;;4.35;;
69057;SDS011;56128;37.534;-122.308;2022-10-04T17:44:03;12.35;;;4.43;;
69057;SDS011;56128;37.534;-122.308;2022-10-04T17:49:23;9.48;;;4.43;;
69057;SDS011;56128;37.534;-122.308;2022-10-04T17:52:19;9.60;;;4.40;;
69057;SDS011;56128;37.534;-122.308;2022-10-04T17:55:16;10.98;;;4.40;;
69057;SDS011;56128;37.534;-122.308;2022-10-04T17:58:02;10.23;;;4.65;;
69057;SDS011;56128;37.534;-122.308;2022-10-04T18:00:57;7.65;;;4.20;;
69057;SDS011;56128;37.534;-122.308;2022-10-04T18:03:34;10.00;;;4.40;;
69057;SDS011;56128;37.534;-122.308;2022-10-04T18:06:10;8.80;;;4.30;;
69057;SDS011;56128;37.534;-122.308;2022-10-04T18:08:55;10.77;;;4.40;;
69057;SDS011;56128;37.534;-122.308;2022-10-04T18:11:45;10.13;;;4.45;;
69057;SDS011;56128;37.534;-122.308;2022-10-04T18:17:37;10.80;;;4.00;;
69057;SDS011;56128;37.534;-122.308;2022-10-04T18:22:57;6.70;;;3.38;;
69057;SDS011;56128;37.534;-122.308;2022-10-04T18:25:45;6.47;;;3.15;;
69057;SDS011;56128;37.534;-122.308;2022-10-04T18:28:13;8.77;;;3.72;;
69057;SDS011;56128;37.534;-122.308;2022-10-04T18:33:18;8.77;;;3.63;;
69057;SDS011;56128;37.534;-122.308;2022-10-04T18:38:28;9.07;;;3.90;;
69057;SDS011;56128;37.534;-122.308;2022-10-04T18:41:00;6.82;;;4.05;;
69057;SDS011;56128;37.534;-122.308;2022-10-04T18:43:51;7.82;;;3.42;;
69057;SDS011;56128;37.534;-122.308;2022-10-04T18:46:38;6.43;;;2.95;;
69057;SDS011;56128;37.534;-122.308;2022-10-04T18:49:26;7.15;;;3.80;;
69057;SDS011;56128;37.534;-122.308;2022-10-04T18:57:40;8.60;;;4.00;;
69057;SDS011;56128;37.534;-122.308;2022-10-04T19:00:32;11.05;;;4.07;;
69057;SDS011;56128;37.534;-122.308;2022-10-04T19:12:04;10.05;;;4.68;;
69057;SDS011;56128;37.534;-122.308;2022-10-04T19:17:18;10.10;;;4.38;;
69057;SDS011;56128;37.534;-122.308;2022-10-04T19:28:36;10.35;;;4.78;;
69057;SDS011;56128;37.534;-122.308;2022-10-04T19:36:45;14.45;;;5.78;;
69057;SDS011;56128;37.534;-122.308;2022-10-04T19:39:35;10.35;;;4.78;;
69057;SDS011;56128;37.534;-122.308;2022-10-04T19:42:13;9.48;;;4.60;;
69057;SDS011;56128;37.534;-122.308;2022-10-04T19:44:55;11.40;;;5.47;;
69057;SDS011;56128;37.534;-122.308;2022-10-04T19:50:29;11.70;;;5.00;;
69057;SDS011;56128;37.534;-122.308;2022-10-04T19:53:18;11.20;;;4.50;;
69057;SDS011;56128;37.534;-122.308;2022-10-04T19:55:54;13.00;;;5.57;;
69057;SDS011;56128;37.534;-122.308;2022-10-04T19:58:27;9.10;;;4.72;;
69057;SDS011;56128;37.534;-122.308;2022-10-04T20:00:58;10.32;;;4.70;;
69057;SDS011;56128;37.534;-122.308;2022-10-04T20:03:25;12.02;;;4.70;;
69057;SDS011;56128;37.534;-122.308;2022-10-04T20:05:52;11.23;;;4.47;;
69057;SDS011;56128;37.534;-122.308;2022-10-04T20:11:27;13.05;;;4.53;;
69057;SDS011;56128;37.534;-122.308;2022-10-04T20:19:18;11.18;;;4.57;;
69057;SDS011;56128;37.534;-122.308;2022-10-04T20:27:05;8.32;;;4.07;;
69057;SDS011;56128;37.534;-122.308;2022-10-04T20:32:02;11.65;;;4.78;;
69057;SDS011;56128;37.534;-122.308;2022-10-04T20:37:05;11.65;;;4.50;;
69057;SDS011;56128;37.534;-122.308;2022-10-04T20:44:54;8.95;;;4.00;;
69057;SDS011;56128;37.534;-122.308;2022-10-04T20:47:37;11.25;;;5.07;;
69057;SDS011;56128;37.534;-122.308;2022-10-04T20:50:23;13.60;;;4.47;;
69057;SDS011;56128;37.534;-122.308;2022-10-04T20:53:28;9.75;;;4.28;;
69057;SDS011;56128;37.534;-122.308;2022-10-04T20:56:07;13.10;;;4.93;;
69057;SDS011;56128;37.534;-122.308;2022-10-04T20:58:36;12.32;;;4.65;;
69057;SDS011;56128;37.534;-122.308;2022-10-04T21:01:18;9.23;;;4.20;;
69057;SDS011;56128;37.534;-122.308;2022-10-04T21:07:07;13.65;;;4.90;;
69057;SDS011;56128;37.534;-122.308;2022-10-04T21:09:38;15.20;;;5.07;;
69057;SDS011;56128;37.534;-122.308;2022-10-04T21:12:23;11.13;;;4.18;;
69057;SDS011;56128;37.534;-122.308;2022-10-04T21:17:41;9.50;;;4.53;;
69057;SDS011;56128;37.534;-122.308;2022-10-04T21:20:39;8.75;;;4.40;;
69057;SDS011;56128;37.534;-122.308;2022-10-04T21:23:07;10.57;;;4.70;;
69057;SDS011;56128;37.534;-122.308;2022-10-04T21:25:41;11.80;;;4.55;;
69057;SDS011;56128;37.534;-122.308;2022-10-04T21:30:56;10.27;;;4.22;;
69057;SDS011;56128;37.534;-122.308;2022-10-04T21:33:24;10.80;;;4.03;;
69057;SDS011;56128;37.534;-122.308;2022-10-04T21:35:50;10.23;;;4.03;;
69057;SDS011;56128;37.534;-122.308;2022-10-04T21:38:17;10.55;;;4.00;;
69057;SDS011;56128;37.534;-122.308;2022-10-04T21:40:44;9.30;;;3.92;;
69057;SDS011;56128;37.534;-122.308;2022-10-04T21:43:10;8.30;;;4.28;;
69057;SDS011;56128;37.534;-122.308;2022-10-04T21:45:36;9.85;;;4.30;;
69057;SDS011;56128;37.534;-122.308;2022-10-04T21:48:02;10.68;;;4.30;;
69057;SDS011;56128;37.534;-122.308;2022-10-04T21:50:28;9.10;;;3.92;;
69057;SDS011;56128;37.534;-122.308;2022-10-04T21:52:54;10.30;;;3.72;;
69057;SDS011;56128;37.534;-122.308;2022-10-04T21:55:21;13.93;;;4.20;;
69057;SDS011;56128;37.534;-122.308;2022-10-04T21:57:47;14.00;;;4.03;;
69057;SDS011;56128;37.534;-122.308;2022-10-04T22:00:13;8.90;;;3.97;;
69057;SDS011;56128;37.534;-122.308;2022-10-04T22:02:40;11.07;;;4.20;;
69057;SDS011;56128;37.534;-122.308;2022-10-04T22:05:06;11.02;;;4.15;;
69057;SDS011;56128;37.534;-122.308;2022-10-04T22:07:32;15.75;;;4.32;;
69057;SDS011;56128;37.534;-122.308;2022-10-04T22:09:58;10.70;;;4.28;;
69057;SDS011;56128;37.534;-122.308;2022-10-04T22:12:24;9.10;;;3.63;;
69057;SDS011;56128;37.534;-122.308;2022-10-04T22:14:51;9.85;;;3.75;;
69057;SDS011;56128;37.534;-122.308;2022-10-04T22:17:17;9.77;;;4.20;;
69057;SDS011;56128;37.534;-122.308;2022-10-04T22:19:43;9.07;;;4.28;;
69057;SDS011;56128;37.534;-122.308;2022-10-04T22:22:15;6.90;;;3.38;;
69057;SDS011;56128;37.534;-122.308;2022-10-04T22:24:41;7.88;;;3.50;;
69057;SDS011;56128;37.534;-122.308;2022-10-04T22:27:12;10.43;;;4.53;;
69057;SDS011;56128;37.534;-122.308;2022-10-04T22:29:40;10.68;;;3.92;;
69057;SDS011;56128;37.534;-122.308;2022-10-04T22:32:17;9.10;;;3.78;;
69057;SDS011;56128;37.534;-122.308;2022-10-04T22:34:48;9.50;;;4.32;;
69057;SDS011;56128;37.534;-122.308;2022-10-04T22:37:16;16.38;;;4.85;;
69057;SDS011;56128;37.534;-122.308;2022-10-04T22:39:48;9.97;;;3.80;;
69057;SDS011;56128;37.534;-122.308;2022-10-04T22:42:16;13.15;;;3.88;;
69057;SDS011;56128;37.534;-122.308;2022-10-04T22:44:42;10.88;;;4.22;;
69057;SDS011;56128;37.534;-122.308;2022-10-04T22:47:10;11.70;;;3.70;;
69057;SDS011;56128;37.534;-122.308;2022-10-04T22:49:43;11.52;;;3.88;;
69057;SDS011;56128;37.534;-122.308;2022-10-04T22:52:18;9.43;;;4.25;;
69057;SDS011;56128;37.534;-122.308;2022-10-04T22:54:47;8.60;;;3.47;;
69057;SDS011;56128;37.534;-122.308;2022-10-04T22:57:15;9.30;;;3.75;;
69057;SDS011;56128;37.534;-122.308;2022-10-04T22:59:43;9.20;;;4.45;;
69057;SDS011;56128;37.534;-122.308;2022-10-04T23:02:13;11.05;;;4.13;;
69057;SDS011;56128;37.534;-122.308;2022-10-04T23:04:45;13.53;;;4.10;;
69057;SDS011;56128;37.534;-122.308;2022-10-04T23:07:16;7.78;;;4.13;;
69057;SDS011;56128;37.534;-122.308;2022-10-04T23:09:43;9.85;;;3.70;;
69057;SDS011;56128;37.534;-122.308;2022-10-04T23:12:09;10.55;;;4.30;;
69057;SDS011;56128;37.534;-122.308;2022-10-04T23:14:36;8.40;;;3.80;;
69057;SDS011;56128;37.534;-122.308;2022-10-04T23:19:56;9.52;;;3.95;;
69057;SDS011;56128;37.534;-122.308;2022-10-04T23:22:27;10.63;;;4.22;;
69057;SDS011;56128;37.534;-122.308;2022-10-04T23:24:55;10.52;;;3.75;;
69057;SDS011;56128;37.534;-122.308;2022-10-04T23:27:22;9.65;;;3.88;;
69057;SDS011;56128;37.534;-122.308;2022-10-04T23:29:49;10.43;;;4.22;;
69057;SDS011;56128;37.534;-122.308;2022-10-04T23:32:26;10.18;;;3.90;;
69057;SDS011;56128;37.534;-122.308;2022-10-04T23:34:52;8.57;;;3.83;;
69057;SDS011;56128;37.534;-122.308;2022-10-04T23:37:24;12.93;;;4.00;;
69057;SDS011;56128;37.534;-122.308;2022-10-04T23:39:52;9.95;;;4.00;;
69057;SDS011;56128;37.534;-122.308;2022-10-04T23:42:19;7.32;;;3.70;;
69057;SDS011;56128;37.534;-122.308;2022-10-04T23:44:56;9.88;;;4.28;;
69057;SDS011;56128;37.534;-122.308;2022-10-04T23:47:26;12.00;;;4.20;;
69057;SDS011;56128;37.534;-122.308;2022-10-04T23:50:26;8.95;;;4.38;;
69057;SDS011;56128;37.534;-122.308;2022-10-04T23:52:59;10.38;;;3.60;;
69057;SDS011;56128;37.534;-122.308;2022-10-04T23:55:30;12.10;;;4.40;;
69057;SDS011;56128;37.534;-122.308;2022-10-04T23:58:12;9.07;;;4.00;;
